Etusivu
METAR-TAF:

METAR-TAF

Lentoasemat :

Ljungbyhed, Ruotsi

Leveyspiiri: 56-04N, Pituuspiiri: 013-12E, korkeus merenpinnasta: 43 m

Tämänhetkinen sää

Tämä raportti tehtiin 27 minuuttia sitten, kello 19.20 UTC
Tuuli 6 kn lounaasta
Lämpötila 11°C
Kosteus 100%
Ilmanpaine 1010 hPa
Näkyvyys 10 km tai enemmän

METAR: ESTL 071920Z AUTO 23006KT 9999 FEW018/// 11/11 Q1010

Aika: 21:47 (19:47 UTC)


TAF: puuttuu

Säähavainnot ja -ennusteet yli 4000 lentoasemalta (METAR- ja TAF-raportit).

Käytössä olevat sääasemat on merkitty karttaan keltaisilla ja punaisilla pisteillä.

Aseta hiiri pisteen päälle nähdäksesi sääaseman nimen.

Klikkaa sitten nähdäksesi säähavainnot ja -ennusteet.

Kartan vaihtaminen: klikkaa mustalla rastilla varustettuja vihreitä pisteitä, niin voit zoomata sisään; viivalla varustettua vihreää pistettä, niin voit zoomata ulos tai vihreitä nuolia, niin pääset viereisille kartoille.


METAR-TAF: